Time;durP1;ratioP1;P1;durP2;ratioP2;P2;SDS_P1;SDS_P2;PMS_P1;PMS_P2;Temp;Humidity;BMP_temperature;BMP_pressure;BME280_temperature;BME280_humidity;BME280_pressure;Samples;Min_cycle;Max_cycle;Signal;HPM_P1;HPM_P2
2021/07/03 00:02:06;;;;;;;34.42;21.40;;;10.60;99.90;;;;;;4932841;28;20051;-78
2021/07/03 00:04:33;;;;;;;41.97;23.60;;;10.50;99.90;;;;;;4960008;28;20280;-79
2021/07/03 00:07:00;;;;;;;39.05;23.38;;;10.60;99.90;;;;;;4942261;28;20069;-79
2021/07/03 00:09:27;;;;;;;36.55;23.02;;;10.50;99.90;;;;;;4965772;28;20059;-79
2021/07/03 00:11:54;;;;;;;43.15;24.13;;;10.50;99.90;;;;;;4939604;28;20503;-79
2021/07/03 00:14:20;;;;;;;40.03;23.67;;;10.60;99.90;;;;;;4947325;28;20042;-79
2021/07/03 00:16:47;;;;;;;45.22;25.40;;;10.40;99.90;;;;;;4939421;28;20046;-79
2021/07/03 00:19:14;;;;;;;38.72;24.67;;;10.60;99.90;;;;;;4941726;28;20106;-79
2021/07/03 00:21:41;;;;;;;39.50;24.27;;;10.70;99.90;;;;;;4941490;28;20229;-79
2021/07/03 00:24:08;;;;;;;42.85;24.38;;;10.50;99.90;;;;;;4957315;28;20536;-79
2021/07/03 00:26:34;;;;;;;43.92;25.13;;;10.50;99.90;;;;;;4954434;28;20066;-79
2021/07/03 00:29:01;;;;;;;48.35;24.27;;;10.50;99.90;;;;;;4951846;28;20059;-79
2021/07/03 00:31:28;;;;;;;47.63;25.80;;;10.40;99.90;;;;;;4960575;28;20185;-78
2021/07/03 00:33:55;;;;;;;50.17;26.77;;;10.60;99.90;;;;;;4967305;28;20055;-79
2021/07/03 00:36:22;;;;;;;52.05;27.55;;;10.60;99.90;;;;;;4948870;28;20110;-80
2021/07/03 00:38:49;;;;;;;49.20;25.35;;;10.50;99.90;;;;;;4962979;28;20478;-79
2021/07/03 00:41:15;;;;;;;49.38;25.98;;;10.60;99.90;;;;;;4940681;28;20521;-78
2021/07/03 00:43:42;;;;;;;42.35;24.92;;;10.70;99.90;;;;;;4940964;28;20161;-79
2021/07/03 00:46:10;;;;;;;43.55;23.92;;;10.50;99.90;;;;;;4942693;28;20043;-79
2021/07/03 00:48:37;;;;;;;47.85;25.25;;;10.40;99.90;;;;;;4932232;28;20055;-79
2021/07/03 00:51:05;;;;;;;47.78;24.98;;;10.50;99.90;;;;;;4956608;28;20062;-79
2021/07/03 00:53:32;;;;;;;47.53;24.77;;;10.60;99.90;;;;;;4925190;28;20512;-79
2021/07/03 00:56:00;;;;;;;47.45;26.48;;;10.30;99.90;;;;;;4950530;28;20043;-80
2021/07/03 00:58:27;;;;;;;42.33;23.67;;;10.20;99.90;;;;;;4937755;28;20039;-79
2021/07/03 01:00:53;;;;;;;41.65;21.98;;;10.20;99.90;;;;;;4929156;29;20054;-79
2021/07/03 01:03:21;;;;;;;33.95;19.92;;;10.20;99.90;;;;;;4934696;28;20427;-79
2021/07/03 01:05:51;;;;;;;43.08;21.58;;;10.00;99.90;;;;;;4953575;28;20436;-79
2021/07/03 01:08:19;;;;;;;34.15;20.30;;;9.90;99.90;;;;;;4959920;28;20081;-79
2021/07/03 01:10:46;;;;;;;39.20;21.55;;;9.90;99.90;;;;;;4923145;28;20519;-79
2021/07/03 01:13:26;;;;;;;41.50;21.75;;;9.80;99.90;;;;;;4934206;28;20707;-80
2021/07/03 01:15:54;;;;;;;44.65;24.35;;;9.80;99.90;;;;;;4930169;28;20047;-79
2021/07/03 01:18:21;;;;;;;48.10;24.30;;;9.80;99.90;;;;;;4935909;28;20054;-79
2021/07/03 01:20:53;;;;;;;54.83;27.05;;;9.90;99.90;;;;;;4932106;28;20135;-79
2021/07/03 01:23:22;;;;;;;51.42;26.85;;;10.00;99.90;;;;;;4946430;28;20109;-78
2021/07/03 01:25:56;;;;;;;49.58;24.55;;;10.00;99.90;;;;;;4958647;28;20042;-79
2021/07/03 01:28:25;;;;;;;52.75;25.17;;;10.10;99.90;;;;;;4959909;28;20058;-78
2021/07/03 01:30:53;;;;;;;42.10;24.17;;;10.10;99.90;;;;;;4930204;28;20058;-78
2021/07/03 01:33:21;;;;;;;43.22;23.67;;;10.10;99.90;;;;;;4954196;28;20055;-79
2021/07/03 01:35:50;;;;;;;47.45;23.55;;;10.10;99.90;;;;;;4938916;28;20081;-79
2021/07/03 01:38:22;;;;;;;52.42;25.23;;;10.10;99.90;;;;;;4966369;28;20516;-78
2021/07/03 01:40:52;;;;;;;50.35;24.75;;;10.10;99.90;;;;;;4963942;28;20050;-79
2021/07/03 01:43:26;;;;;;;62.58;29.42;;;9.80;99.90;;;;;;4946869;28;20063;-78
2021/07/03 01:45:56;;;;;;;57.00;27.73;;;9.80;99.90;;;;;;4949741;28;20054;-79
2021/07/03 01:48:27;;;;;;;51.10;26.95;;;9.90;99.90;;;;;;4937664;28;20145;-79
2021/07/03 01:50:57;;;;;;;60.28;29.13;;;9.90;99.90;;;;;;4917613;28;20055;-79
2021/07/03 01:53:25;;;;;;;50.15;26.98;;;9.90;99.90;;;;;;4959532;28;20137;-79
2021/07/03 01:55:54;;;;;;;50.38;25.10;;;9.80;99.90;;;;;;4938692;28;20125;-79
2021/07/03 01:58:24;;;;;;;45.50;24.80;;;9.80;99.90;;;;;;4938995;28;20051;-79
2021/07/03 02:01:08;;;;;;;43.90;24.05;;;9.80;99.90;;;;;;4954522;28;20047;-78
2021/07/03 02:03:35;;;;;;;43.63;23.00;;;9.70;99.90;;;;;;4932832;28;20059;-79
2021/07/03 02:06:06;;;;;;;45.95;23.08;;;9.80;99.90;;;;;;4939627;28;20510;-78
2021/07/03 02:08:36;;;;;;;38.60;21.08;;;9.70;99.90;;;;;;4964449;28;20065;-78
2021/07/03 02:11:11;;;;;;;45.28;24.15;;;9.60;99.90;;;;;;4957278;28;20075;-79
2021/07/03 02:13:41;;;;;;;42.40;23.73;;;9.70;99.90;;;;;;4966933;28;20141;-79
2021/07/03 02:16:08;;;;;;;42.88;23.08;;;9.60;99.90;;;;;;4940089;28;20054;-79
2021/07/03 02:18:36;;;;;;;51.85;24.45;;;9.50;99.90;;;;;;4932037;29;20047;-79
2021/07/03 02:21:11;;;;;;;47.83;24.85;;;9.50;99.90;;;;;;4941540;28;20054;-79
2021/07/03 02:23:38;;;;;;;50.60;25.60;;;9.60;99.90;;;;;;4934476;29;20562;-78
2021/07/03 02:26:05;;;;;;;44.35;22.50;;;9.60;99.90;;;;;;4939225;28;20431;-79
2021/07/03 02:28:35;;;;;;;40.22;21.15;;;9.40;99.90;;;;;;4926966;28;20053;-78
2021/07/03 02:31:11;;;;;;;40.35;21.48;;;9.40;99.90;;;;;;4937022;28;20150;-79
2021/07/03 02:33:40;;;;;;;48.72;24.33;;;9.30;99.90;;;;;;4953666;28;20054;-79
2021/07/03 02:36:10;;;;;;;43.60;22.15;;;9.30;99.90;;;;;;4947864;28;20046;-78
2021/07/03 02:38:40;;;;;;;38.47;21.75;;;9.20;99.90;;;;;;4947023;28;20475;-78
2021/07/03 02:41:08;;;;;;;44.38;22.25;;;9.20;99.90;;;;;;4949378;28;20518;-78
2021/07/03 02:43:36;;;;;;;41.17;22.52;;;9.30;99.90;;;;;;4945412;28;20059;-78
2021/07/03 02:46:09;;;;;;;45.80;22.60;;;9.40;99.90;;;;;;4944838;28;20118;-79
2021/07/03 02:48:36;;;;;;;48.75;22.45;;;9.50;99.90;;;;;;4931118;29;20086;-78
2021/07/03 02:51:03;;;;;;;41.10;23.38;;;9.50;99.90;;;;;;4938299;28;20485;-78
2021/07/03 02:53:31;;;;;;;48.15;25.85;;;9.50;99.90;;;;;;4950722;28;20047;-79
2021/07/03 02:55:59;;;;;;;49.80;25.42;;;9.50;99.90;;;;;;4955041;28;20442;-79
2021/07/03 02:58:26;;;;;;;47.92;25.00;;;9.60;99.90;;;;;;4954277;28;20571;-79
2021/07/03 03:00:54;;;;;;;43.95;25.05;;;9.40;99.90;;;;;;4946852;28;20073;-79
2021/07/03 03:03:22;;;;;;;51.10;27.08;;;9.30;99.90;;;;;;4932923;28;20051;-79
2021/07/03 03:05:49;;;;;;;48.13;24.58;;;9.20;99.90;;;;;;4936097;29;20051;-79
2021/07/03 03:08:16;;;;;;;50.50;25.52;;;9.30;99.90;;;;;;4944561;28;20050;-79
2021/07/03 03:10:43;;;;;;;65.78;28.45;;;9.20;99.90;;;;;;4943910;28;20047;-78
2021/07/03 03:13:10;;;;;;;52.30;25.80;;;9.40;99.90;;;;;;4962020;28;20055;-79
2021/07/03 03:15:37;;;;;;;54.65;25.55;;;9.50;99.90;;;;;;4929446;28;20078;-79
2021/07/03 03:18:05;;;;;;;54.88;25.70;;;9.30;99.90;;;;;;4948218;28;20043;-79
2021/07/03 03:20:34;;;;;;;64.43;30.70;;;9.50;99.90;;;;;;4929152;28;20079;-78
2021/07/03 03:23:04;;;;;;;60.00;30.73;;;9.60;99.90;;;;;;4942685;28;20047;-79
2021/07/03 03:25:31;;;;;;;75.75;32.05;;;9.60;99.90;;;;;;4938252;28;20071;-79
2021/07/03 03:27:58;;;;;;;40.03;23.80;;;9.60;99.90;;;;;;4924662;28;20280;-78
2021/07/03 03:30:25;;;;;;;46.78;25.45;;;9.60;99.90;;;;;;4918703;28;20114;-78
2021/07/03 03:32:52;;;;;;;38.78;22.63;;;9.40;99.90;;;;;;4932432;28;20044;-78
2021/07/03 03:35:21;;;;;;;34.90;20.52;;;9.40;99.90;;;;;;4926809;28;20678;-78
2021/07/03 03:37:51;;;;;;;41.70;23.02;;;9.30;99.90;;;;;;4962786;28;20130;-79
2021/07/03 03:40:26;;;;;;;44.38;25.27;;;9.30;99.90;;;;;;4945904;28;20051;-79
2021/07/03 03:42:55;;;;;;;41.03;22.67;;;9.20;99.90;;;;;;4956617;28;20051;-79
2021/07/03 03:45:23;;;;;;;49.15;23.75;;;9.10;99.90;;;;;;4947888;28;20054;-79
2021/07/03 03:47:55;;;;;;;41.72;21.83;;;9.20;99.90;;;;;;4958301;28;20058;-78
2021/07/03 03:50:23;;;;;;;34.13;19.83;;;9.20;99.90;;;;;;4928422;28;20134;-78
2021/07/03 03:52:50;;;;;;;37.72;21.58;;;9.40;99.90;;;;;;4936533;29;20047;-79
2021/07/03 03:55:17;;;;;;;41.00;22.98;;;9.40;99.90;;;;;;4936732;28;20130;-78
2021/07/03 03:57:45;;;;;;;44.20;23.17;;;9.30;99.90;;;;;;4959395;28;20049;-78
2021/07/03 04:00:18;;;;;;;34.30;19.92;;;9.30;99.90;;;;;;4951425;28;20443;-78
2021/07/03 04:02:51;;;;;;;47.05;25.23;;;9.30;99.90;;;;;;4929224;28;20370;-78
2021/07/03 04:05:24;;;;;;;56.40;29.80;;;9.40;99.90;;;;;;4939628;28;20050;-78
2021/07/03 04:07:53;;;;;;;62.20;30.50;;;9.50;99.90;;;;;;4962925;28;20051;-78
2021/07/03 04:10:19;;;;;;;68.68;30.60;;;9.50;99.90;;;;;;4945515;28;20042;-78
2021/07/03 04:12:46;;;;;;;58.40;31.15;;;9.60;99.90;;;;;;4954880;28;20058;-80
2021/07/03 04:15:13;;;;;;;58.45;30.83;;;9.70;99.90;;;;;;4952186;28;20324;-80
2021/07/03 04:17:40;;;;;;;59.25;31.42;;;9.70;99.90;;;;;;4951576;28;20495;-80
2021/07/03 04:20:09;;;;;;;63.60;32.97;;;9.70;99.90;;;;;;4928752;28;20070;-80
2021/07/03 04:22:37;;;;;;;60.45;32.35;;;9.80;99.90;;;;;;4952885;28;20065;-80
2021/07/03 04:25:07;;;;;;;53.65;31.30;;;9.80;99.90;;;;;;4952025;28;20511;-78
2021/07/03 04:27:34;;;;;;;59.60;33.45;;;9.90;99.90;;;;;;4959758;28;20050;-78
2021/07/03 04:30:03;;;;;;;58.08;29.77;;;9.90;99.90;;;;;;4936364;28;20039;-80
2021/07/03 04:32:30;;;;;;;52.15;30.33;;;9.90;99.90;;;;;;4938711;29;20077;-78
2021/07/03 04:34:57;;;;;;;46.90;27.58;;;10.10;99.90;;;;;;4929151;28;20111;-78
2021/07/03 04:37:23;;;;;;;40.85;25.90;;;10.50;99.90;;;;;;4957307;28;20058;-78
2021/07/03 04:39:50;;;;;;;33.85;23.58;;;10.70;99.90;;;;;;4954915;28;20328;-78
2021/07/03 04:42:17;;;;;;;40.15;21.52;;;10.90;99.90;;;;;;4955900;28;20148;-78
2021/07/03 04:44:44;;;;;;;33.17;21.05;;;11.20;99.90;;;;;;4947687;28;20051;-78
2021/07/03 04:47:10;;;;;;;29.15;20.35;;;11.50;99.90;;;;;;4955059;28;20053;-78
2021/07/03 04:49:37;;;;;;;38.67;26.98;;;11.70;99.90;;;;;;4951991;28;20055;-80
2021/07/03 04:52:04;;;;;;;33.65;23.33;;;11.90;99.90;;;;;;4931405;28;20067;-78
2021/07/03 04:54:31;;;;;;;28.17;19.95;;;12.10;99.90;;;;;;4938926;28;20484;-78
2021/07/03 04:57:07;;;;;;;30.88;19.75;;;12.20;99.90;;;;;;4945567;28;20058;-78
2021/07/03 04:59:35;;;;;;;28.63;19.83;;;12.30;99.90;;;;;;4960840;28;20452;-78
2021/07/03 05:02:04;;;;;;;28.85;20.58;;;12.40;99.90;;;;;;4930964;28;20041;-79
2021/07/03 05:04:32;;;;;;;27.70;19.92;;;12.60;99.90;;;;;;4946872;28;20518;-78
2021/07/03 05:06:59;;;;;;;25.10;18.23;;;12.90;99.90;;;;;;4961557;28;20129;-79
2021/07/03 05:09:26;;;;;;;30.67;20.63;;;12.90;99.90;;;;;;4962480;28;20046;-79
2021/07/03 05:11:53;;;;;;;27.20;20.13;;;13.00;99.90;;;;;;4942884;28;20047;-79
2021/07/03 05:14:20;;;;;;;32.35;21.48;;;13.10;99.90;;;;;;4966799;28;20317;-81
2021/07/03 05:16:47;;;;;;;31.35;22.35;;;13.10;99.90;;;;;;4988508;28;20038;-80
2021/07/03 05:19:14;;;;;;;29.90;23.58;;;13.40;99.90;;;;;;4984434;28;20049;-80
2021/07/03 05:21:42;;;;;;;25.80;20.00;;;13.30;99.90;;;;;;4977465;28;20320;-81
2021/07/03 05:24:09;;;;;;;27.30;19.75;;;13.60;99.90;;;;;;4967177;28;20055;-80
2021/07/03 05:26:36;;;;;;;25.23;19.85;;;14.10;99.90;;;;;;4942626;28;20047;-80
2021/07/03 05:29:05;;;;;;;27.88;21.02;;;14.50;99.90;;;;;;4952309;28;20055;-80
2021/07/03 05:31:32;;;;;;;24.95;19.80;;;14.80;99.90;;;;;;4957420;28;20058;-80
2021/07/03 05:34:00;;;;;;;28.70;19.70;;;15.20;99.90;;;;;;4966367;28;20105;-80
2021/07/03 05:36:27;;;;;;;21.63;19.02;;;15.50;99.90;;;;;;4941696;28;20492;-80
2021/07/03 05:38:54;;;;;;;25.55;20.58;;;15.80;99.90;;;;;;4963121;28;20059;-81
2021/07/03 05:41:21;;;;;;;23.63;20.00;;;16.10;99.90;;;;;;4967564;28;20051;-81
2021/07/03 05:43:48;;;;;;;21.20;19.02;;;16.50;99.90;;;;;;4954179;28;20063;-81
2021/07/03 05:46:16;;;;;;;22.15;19.90;;;16.90;99.90;;;;;;4950005;28;20054;-80
2021/07/03 05:48:43;;;;;;;24.20;21.42;;;17.30;99.90;;;;;;4937099;28;20473;-80
2021/07/03 05:51:11;;;;;;;24.13;21.55;;;17.40;99.90;;;;;;4945187;28;20052;-80
2021/07/03 05:53:38;;;;;;;22.65;20.30;;;17.60;99.90;;;;;;4961880;28;20055;-80
2021/07/03 05:56:05;;;;;;;24.63;21.98;;;17.80;99.90;;;;;;4935826;28;20054;-80
2021/07/03 05:58:31;;;;;;;28.77;22.38;;;17.80;99.90;;;;;;4966376;28;20527;-81
2021/07/03 06:00:58;;;;;;;27.27;21.92;;;18.10;99.90;;;;;;4936265;28;20054;-80
2021/07/03 06:03:25;;;;;;;34.17;24.50;;;18.20;99.90;;;;;;4934982;28;20046;-81
2021/07/03 06:05:52;;;;;;;37.40;22.98;;;18.30;99.90;;;;;;4959171;28;20051;-80
2021/07/03 06:08:19;;;;;;;42.47;26.95;;;18.50;99.90;;;;;;4956485;28;20030;-80
2021/07/03 06:10:46;;;;;;;35.58;26.15;;;18.90;99.90;;;;;;4966065;28;20050;-81
2021/07/03 06:13:13;;;;;;;31.25;26.85;;;19.40;99.90;;;;;;4945668;29;20081;-80
2021/07/03 06:15:40;;;;;;;31.02;26.08;;;19.70;99.90;;;;;;4949504;28;20047;-82
2021/07/03 06:18:07;;;;;;;33.63;27.58;;;19.70;99.90;;;;;;4959305;28;20047;-81
2021/07/03 06:20:33;;;;;;;29.83;26.70;;;19.80;99.90;;;;;;4942873;28;20043;-81
2021/07/03 06:23:00;;;;;;;35.58;31.58;;;20.10;99.90;;;;;;4940562;29;20043;-81
2021/07/03 06:25:27;;;;;;;42.70;38.13;;;20.30;99.90;;;;;;4940181;28;20051;-81
2021/07/03 06:27:54;;;;;;;37.75;32.67;;;20.10;99.90;;;;;;4962001;28;20039;-81
2021/07/03 06:30:20;;;;;;;36.85;32.85;;;20.40;99.90;;;;;;4953307;28;20059;-81
2021/07/03 06:32:47;;;;;;;33.97;30.58;;;20.40;99.90;;;;;;4933430;28;20066;-81
2021/07/03 06:35:14;;;;;;;36.65;32.47;;;20.70;99.90;;;;;;4949662;28;20110;-82
2021/07/03 06:37:41;;;;;;;33.83;30.55;;;20.70;99.90;;;;;;4964793;28;20062;-81
2021/07/03 06:40:08;;;;;;;35.13;31.33;;;20.70;99.90;;;;;;4951319;28;20054;-81
2021/07/03 06:42:35;;;;;;;36.15;32.08;;;20.90;99.90;;;;;;4952318;28;20102;-81
2021/07/03 06:45:03;;;;;;;37.10;33.08;;;21.00;99.90;;;;;;4945008;28;20054;-82
2021/07/03 06:47:30;;;;;;;37.17;33.45;;;21.20;99.90;;;;;;4959578;28;20749;-80
2021/07/03 06:49:57;;;;;;;36.75;32.85;;;21.30;99.90;;;;;;4934538;28;20045;-82
2021/07/03 06:52:24;;;;;;;35.67;32.20;;;21.60;99.90;;;;;;4921419;29;20196;-81
2021/07/03 06:54:51;;;;;;;35.33;31.92;;;21.70;99.90;;;;;;4940476;28;20432;-82
2021/07/03 06:57:17;;;;;;;36.30;32.63;;;21.70;99.90;;;;;;4944518;28;20846;-81
2021/07/03 06:59:44;;;;;;;35.63;32.22;;;21.90;99.90;;;;;;4942947;28;20047;-80
2021/07/03 07:02:11;;;;;;;35.03;31.50;;;22.10;99.90;;;;;;4924300;28;20531;-82
2021/07/03 07:04:38;;;;;;;35.60;32.20;;;22.30;99.90;;;;;;4966347;28;20141;-79
2021/07/03 07:07:05;;;;;;;36.47;32.95;;;22.60;99.90;;;;;;4960067;28;20058;-80
2021/07/03 07:09:31;;;;;;;36.92;33.15;;;22.90;99.90;;;;;;4931838;29;20103;-81
2021/07/03 07:11:59;;;;;;;39.95;36.00;;;23.20;99.90;;;;;;4949137;28;20463;-80
2021/07/03 07:14:26;;;;;;;41.28;37.13;;;23.20;99.90;;;;;;4953934;28;20054;-83
2021/07/03 07:16:53;;;;;;;38.30;34.50;;;23.10;99.90;;;;;;4960210;28;20404;-79
2021/07/03 07:19:21;;;;;;;41.35;37.03;;;23.20;99.90;;;;;;4958777;28;20043;-79
2021/07/03 07:21:48;;;;;;;39.35;35.28;;;23.10;99.90;;;;;;4951885;28;20220;-80
2021/07/03 07:24:15;;;;;;;39.50;35.50;;;23.20;99.90;;;;;;4941140;28;20046;-78
2021/07/03 07:26:42;;;;;;;43.28;39.08;;;23.40;99.90;;;;;;4960073;28;20731;-82
2021/07/03 07:29:09;;;;;;;41.63;37.40;;;23.60;99.90;;;;;;4945864;28;20101;-79
2021/07/03 07:31:36;;;;;;;39.92;35.92;;;23.30;99.90;;;;;;4933258;28;20054;-85
2021/07/03 07:34:03;;;;;;;38.65;34.75;;;23.20;99.90;;;;;;4946534;28;20050;-80
2021/07/03 07:36:29;;;;;;;40.00;35.67;;;23.00;99.90;;;;;;4941635;28;20140;-82
2021/07/03 07:38:56;;;;;;;37.67;33.90;;;22.90;99.90;;;;;;4963197;28;20046;-80
2021/07/03 07:41:26;;;;;;;39.60;35.70;;;22.90;99.90;;;;;;4952777;28;20062;-81
2021/07/03 07:43:52;;;;;;;37.10;33.47;;;22.80;99.90;;;;;;4944784;28;20047;-80
2021/07/03 07:46:19;;;;;;;39.40;35.80;;;22.70;99.90;;;;;;4959109;28;20058;-79
2021/07/03 07:48:46;;;;;;;42.67;37.15;;;22.50;99.90;;;;;;4926072;28;20520;-82
2021/07/03 07:51:13;;;;;;;39.10;35.33;;;22.10;99.90;;;;;;4936843;28;20038;-79
2021/07/03 07:53:40;;;;;;;36.47;32.63;;;21.90;99.90;;;;;;4967490;28;20047;-85
2021/07/03 07:56:07;;;;;;;38.65;34.78;;;21.80;99.90;;;;;;4956839;28;20060;-83
2021/07/03 07:58:33;;;;;;;36.40;32.60;;;21.80;99.90;;;;;;4958025;28;20621;-80
2021/07/03 08:01:00;;;;;;;37.00;33.22;;;22.10;99.90;;;;;;4958230;28;20039;-84
2021/07/03 08:03:27;;;;;;;35.08;31.77;;;22.40;99.90;;;;;;4933845;29;20059;-82
2021/07/03 08:05:54;;;;;;;36.13;32.42;;;22.60;99.90;;;;;;4956504;28;20071;-81
2021/07/03 08:08:21;;;;;;;34.35;30.45;;;22.80;99.90;;;;;;4948428;28;20531;-82
2021/07/03 08:10:47;;;;;;;35.45;30.92;;;23.20;99.90;;;;;;4962082;28;20065;-86
2021/07/03 08:13:14;;;;;;;33.17;30.05;;;23.40;99.90;;;;;;4942397;28;20047;-80
2021/07/03 08:15:43;;;;;;;33.80;30.27;;;23.50;99.90;;;;;;4926120;28;20047;-83
2021/07/03 08:18:09;;;;;;;34.15;30.80;;;23.50;99.90;;;;;;4960905;28;20092;-85
2021/07/03 08:20:37;;;;;;;36.90;33.28;;;23.60;99.90;;;;;;4967672;28;20102;-82
2021/07/03 08:23:04;;;;;;;34.83;31.63;;;23.50;99.90;;;;;;4943412;28;20039;-83
2021/07/03 08:25:30;;;;;;;34.53;31.33;;;23.10;99.90;;;;;;4945243;28;20069;-80
2021/07/03 08:27:58;;;;;;;33.63;30.48;;;23.10;99.90;;;;;;4961502;28;20035;-84
2021/07/03 08:30:28;;;;;;;32.22;29.20;;;23.00;99.90;;;;;;4965851;28;20061;-81
2021/07/03 08:32:55;;;;;;;34.20;30.83;;;23.00;99.90;;;;;;4950407;28;20043;-81
2021/07/03 08:35:22;;;;;;;30.67;27.67;;;23.00;99.90;;;;;;4957332;28;20042;-82
2021/07/03 08:37:49;;;;;;;29.75;26.83;;;23.20;99.90;;;;;;4966443;28;20077;-82
2021/07/03 08:40:16;;;;;;;29.92;27.02;;;23.50;99.90;;;;;;4968263;28;20234;-84
2021/07/03 08:42:44;;;;;;;27.63;25.00;;;23.50;99.90;;;;;;4957607;28;20114;-80
2021/07/03 08:45:12;;;;;;;27.83;25.35;;;23.80;99.90;;;;;;4956897;28;20134;-80
2021/07/03 08:47:54;;;;;;;27.23;24.50;;;24.10;99.90;;;;;;4935434;28;20176;-83
2021/07/03 08:50:21;;;;;;;27.48;24.75;;;24.60;99.90;;;;;;4956018;28;20059;-82
2021/07/03 08:52:48;;;;;;;29.23;26.55;;;24.60;99.90;;;;;;4940723;28;20055;-83
2021/07/03 08:55:24;;;;;;;27.30;24.67;;;24.40;99.90;;;;;;4953555;28;20039;-82
2021/07/03 08:58:04;;;;;;;27.50;25.15;;;24.20;99.90;;;;;;4945358;28;20047;-84
2021/07/03 09:00:43;;;;;;;25.33;23.23;;;24.20;99.90;;;;;;4942938;28;20051;-81
2021/07/03 09:03:25;;;;;;;27.08;24.77;;;23.80;99.90;;;;;;4931405;28;20043;-82
2021/07/03 09:05:54;;;;;;;27.73;24.98;;;23.70;99.90;;;;;;4962360;28;20050;-81
2021/07/03 09:08:23;;;;;;;26.65;24.13;;;23.30;99.90;;;;;;4963753;28;20055;-82
2021/07/03 09:11:07;;;;;;;24.90;22.77;;;23.40;99.90;;;;;;4943524;28;20054;-83
2021/07/03 09:13:37;;;;;;;23.77;21.65;;;23.70;99.90;;;;;;4936768;28;20062;-81
2021/07/03 09:16:04;;;;;;;26.70;24.17;;;23.80;99.90;;;;;;4940225;29;20040;-83
2021/07/03 09:18:32;;;;;;;23.00;21.00;;;24.10;99.90;;;;;;4937580;28;20574;-84
2021/07/03 09:21:02;;;;;;;25.42;22.73;;;24.10;99.90;;;;;;4953708;28;20428;-81
2021/07/03 09:23:37;;;;;;;25.95;23.73;;;24.20;99.90;;;;;;4957389;28;20186;-81
2021/07/03 09:26:07;;;;;;;23.20;21.10;;;24.00;99.90;;;;;;4940202;28;20058;-82
2021/07/03 09:28:40;;;;;;;23.83;21.38;;;23.90;99.90;;;;;;4941261;28;20043;-81
2021/07/03 09:31:09;;;;;;;25.00;22.33;;;23.70;99.90;;;;;;4932689;29;20035;-81
2021/07/03 09:33:41;;;;;;;25.88;23.50;;;23.50;99.90;;;;;;4937242;28;20042;-85
2021/07/03 09:36:10;;;;;;;26.75;24.20;;;23.30;99.90;;;;;;4950812;28;20054;-84
2021/07/03 09:38:38;;;;;;;30.45;27.58;;;23.00;99.90;;;;;;4997449;23;20676;-72
2021/07/03 09:41:13;;;;;;;28.33;25.35;;;22.80;99.90;;;;;;5004365;28;20145;-71
2021/07/03 09:43:52;;;;;;;26.02;23.48;;;22.90;99.90;;;;;;5016080;28;20073;-71
2021/07/03 09:46:31;;;;;;;26.08;23.67;;;23.00;99.90;;;;;;5011254;28;20046;-73
2021/07/03 09:49:00;;;;;;;26.73;23.98;;;23.10;99.90;;;;;;4999016;28;20050;-71
2021/07/03 09:51:36;;;;;;;21.05;19.08;;;23.10;99.90;;;;;;4980397;28;20062;-71
2021/07/03 09:54:09;;;;;;;20.55;18.58;;;23.30;99.90;;;;;;5007576;28;20073;-73
2021/07/03 09:56:36;;;;;;;20.73;18.88;;;23.60;99.90;;;;;;5005766;28;20314;-73
2021/07/03 09:59:04;;;;;;;21.70;19.60;;;23.90;99.90;;;;;;4990821;28;20030;-73
2021/07/03 10:01:40;;;;;;;23.00;20.85;;;24.40;99.90;;;;;;5000205;28;20061;-70
2021/07/03 10:04:08;;;;;;;22.10;20.08;;;24.50;99.90;;;;;;4984966;28;20492;-72
2021/07/03 10:06:41;;;;;;;21.98;20.20;;;24.70;99.90;;;;;;5020910;28;20037;-71
2021/07/03 10:09:37;;;;;;;21.23;19.50;;;24.80;99.90;;;;;;5014092;28;20076;-72
2021/07/03 10:12:07;;;;;;;19.25;17.65;;;25.00;99.90;;;;;;4985104;28;20042;-73
2021/07/03 10:14:52;;;;;;;19.83;17.92;;;25.00;99.90;;;;;;5003339;28;20479;-72
2021/07/03 10:17:25;;;;;;;17.45;16.13;;;25.30;99.90;;;;;;4997121;28;20558;-71
2021/07/03 10:19:53;;;;;;;18.80;17.17;;;25.40;99.90;;;;;;4995318;28;20042;-72
2021/07/03 10:22:22;;;;;;;19.33;17.48;;;25.50;99.90;;;;;;5022098;28;20053;-72
2021/07/03 10:24:52;;;;;;;17.58;15.95;;;25.80;99.90;;;;;;5001959;28;20127;-71
2021/07/03 10:27:27;;;;;;;17.58;16.00;;;26.00;99.90;;;;;;4993644;28;20050;-72
2021/07/03 10:29:56;;;;;;;16.05;14.77;;;25.80;99.90;;;;;;5010409;28;20128;-71
2021/07/03 10:32:27;;;;;;;17.40;16.05;;;25.60;99.90;;;;;;5000411;28;20054;-72
2021/07/03 10:34:54;;;;;;;17.05;15.65;;;25.40;99.90;;;;;;5002396;28;20056;-71
2021/07/03 10:37:32;;;;;;;17.42;16.02;;;25.40;99.90;;;;;;5005161;28;20061;-72
2021/07/03 10:40:00;;;;;;;17.92;16.30;;;25.50;99.90;;;;;;4991481;28;20173;-72
2021/07/03 10:42:29;;;;;;;18.05;16.65;;;25.50;99.90;;;;;;4998472;28;20054;-72
2021/07/03 10:45:07;;;;;;;16.95;15.50;;;25.50;99.90;;;;;;4992387;28;20073;-71
2021/07/03 10:47:34;;;;;;;16.63;15.20;;;25.50;99.90;;;;;;4993846;28;20112;-71
2021/07/03 10:50:16;;;;;;;15.82;14.63;;;25.40;99.90;;;;;;5001757;28;20410;-72
2021/07/03 10:52:44;;;;;;;16.85;15.40;;;25.60;99.90;;;;;;4989853;28;20408;-71
2021/07/03 10:55:11;;;;;;;16.48;15.07;;;25.40;99.90;;;;;;4972712;28;20096;-73
2021/07/03 10:57:43;;;;;;;16.52;15.23;;;25.40;99.90;;;;;;4996726;28;20482;-71
2021/07/03 11:00:12;;;;;;;16.38;15.05;;;25.60;99.90;;;;;;4984795;28;20293;-72
2021/07/03 11:02:39;;;;;;;16.25;14.95;;;25.60;99.90;;;;;;5016109;28;20050;-72
2021/07/03 11:05:13;;;;;;;15.65;14.25;;;25.70;99.90;;;;;;5005164;28;20093;-73
2021/07/03 11:07:42;;;;;;;16.52;15.27;;;25.70;99.90;;;;;;5018410;28;20119;-71
2021/07/03 11:10:10;;;;;;;18.77;16.20;;;25.70;99.90;;;;;;5007785;28;20046;-72
2021/07/03 11:12:55;;;;;;;15.40;14.20;;;25.80;99.90;;;;;;5019149;28;20056;-72
2021/07/03 11:15:25;;;;;;;15.88;14.63;;;26.00;99.90;;;;;;4996194;28;20419;-74
2021/07/03 11:17:55;;;;;;;15.23;14.00;;;26.40;99.90;;;;;;4973514;28;20074;-72
2021/07/03 11:20:27;;;;;;;14.82;13.60;;;26.40;99.90;;;;;;4988506;28;20053;-73
2021/07/03 11:22:55;;;;;;;15.73;14.45;;;26.50;99.90;;;;;;5003670;28;20108;-73
2021/07/03 11:25:33;;;;;;;15.70;14.40;;;26.30;99.90;;;;;;5015471;28;20053;-72
2021/07/03 11:28:22;;;;;;;16.48;15.27;;;26.00;99.90;;;;;;4976120;28;20217;-71
2021/07/03 11:30:56;;;;;;;16.38;15.15;;;25.90;99.90;;;;;;4996865;28;20062;-73
2021/07/03 11:33:25;;;;;;;16.55;15.18;;;26.00;99.90;;;;;;5001404;28;20061;-75
2021/07/03 11:35:51;;;;;;;16.98;15.43;;;25.80;99.90;;;;;;4999029;28;20045;-74
2021/07/03 11:38:22;;;;;;;16.67;15.38;;;25.90;99.90;;;;;;5019125;28;20042;-75
2021/07/03 11:40:58;;;;;;;18.17;16.65;;;26.30;99.90;;;;;;5000003;28;20490;-74
2021/07/03 11:43:25;;;;;;;15.38;14.27;;;26.40;99.90;;;;;;5001394;28;20084;-75
2021/07/03 11:45:54;;;;;;;16.25;14.98;;;26.50;99.90;;;;;;5000354;28;20054;-74
2021/07/03 11:48:26;;;;;;;14.70;13.52;;;26.30;99.90;;;;;;4979577;28;20064;-74
2021/07/03 11:50:55;;;;;;;14.85;13.68;;;26.40;99.90;;;;;;5006795;28;20057;-75
2021/07/03 11:53:25;;;;;;;15.43;14.35;;;26.40;99.90;;;;;;4997964;28;20108;-74
2021/07/03 11:55:53;;;;;;;14.85;13.82;;;26.20;99.90;;;;;;5011537;28;20577;-75
2021/07/03 11:58:24;;;;;;;14.63;13.50;;;26.30;99.90;;;;;;4992681;28;20499;-74
2021/07/03 12:00:53;;;;;;;15.25;14.07;;;26.00;99.90;;;;;;4995104;28;20057;-74
2021/07/03 12:03:26;;;;;;;15.95;14.73;;;26.10;99.90;;;;;;5001428;28;20057;-74
2021/07/03 12:05:55;;;;;;;15.70;14.60;;;26.10;99.90;;;;;;4998713;28;20058;-75
2021/07/03 12:08:28;;;;;;;16.15;14.75;;;26.30;99.90;;;;;;4974320;28;20096;-74
2021/07/03 12:11:01;;;;;;;15.32;14.32;;;26.10;99.90;;;;;;4986753;28;20105;-75
2021/07/03 12:13:33;;;;;;;15.15;14.05;;;26.10;99.90;;;;;;5001213;28;20054;-75
2021/07/03 12:16:02;;;;;;;14.57;13.57;;;26.30;99.90;;;;;;5008321;28;20088;-75
2021/07/03 12:18:34;;;;;;;15.63;14.63;;;26.50;99.90;;;;;;5008229;28;20045;-75
2021/07/03 12:21:19;;;;;;;15.35;14.05;;;26.40;99.90;;;;;;5009094;28;20072;-74
2021/07/03 12:23:45;;;;;;;16.38;14.95;;;26.20;99.90;;;;;;5033427;28;20058;-75
2021/07/03 12:26:14;;;;;;;15.77;14.57;;;25.90;99.90;;;;;;4994871;28;20117;-73
2021/07/03 12:29:03;;;;;;;16.45;15.15;;;26.00;99.90;;;;;;4994318;28;20062;-73
2021/07/03 12:31:32;;;;;;;15.35;14.18;;;25.80;99.90;;;;;;4985131;28;20119;-75
2021/07/03 12:34:27;;;;;;;15.80;14.70;;;26.20;99.90;;;;;;5012981;28;20050;-73
2021/07/03 12:37:06;;;;;;;17.25;15.50;;;26.40;99.90;;;;;;4999281;28;20039;-74
2021/07/03 12:39:33;;;;;;;15.70;14.57;;;26.30;99.90;;;;;;4974238;28;20076;-75